Time;durP1;ratioP1;P1;durP2;ratioP2;P2;SDS_P1;SDS_P2;PMS_P1;PMS_P2;Temp;Humidity;BMP_temperature;BMP_pressure;BME280_temperature;BME280_humidity;BME280_pressure;Samples;Min_cycle;Max_cycle;Signal;HPM_P1;HPM_P2
2022/07/09 00:00:27;;;;;;;24.20;9.40;;;;;;;15.93;66.84;99471.29;105870;1279;113392;-67
2022/07/09 00:03:08;;;;;;;20.00;8.70;;;;;;;15.91;67.04;99473.12;105875;1280;96600;-66
2022/07/09 00:05:38;;;;;;;18.70;8.30;;;;;;;15.91;67.07;99471.36;105824;1281;108776;-67
2022/07/09 00:08:06;;;;;;;17.10;7.90;;;;;;;15.90;67.20;99472.64;105829;1281;99324;-68
2022/07/09 00:10:36;;;;;;;22.30;7.40;;;;;;;15.91;67.07;99470.81;105819;1279;99202;-68
2022/07/09 00:13:04;;;;;;;16.50;8.10;;;;;;;15.89;67.15;99472.76;105820;1281;113432;-67
2022/07/09 00:15:33;;;;;;;19.20;7.80;;;;;;;15.88;67.13;99478.57;105861;1281;99286;-68
2022/07/09 00:18:03;;;;;;;17.20;7.60;;;;;;;15.87;67.21;99476.52;105819;1280;108686;-67
2022/07/09 00:20:32;;;;;;;20.00;7.80;;;;;;;15.84;67.01;99477.31;105861;1281;99285;-68
2022/07/09 00:23:02;;;;;;;17.40;7.10;;;;;;;15.79;67.07;99476.89;105916;1281;99208;-68
2022/07/09 00:25:30;;;;;;;15.20;6.80;;;;;;;15.76;67.26;99479.29;105843;1279;112481;-66
2022/07/09 00:28:03;;;;;;;15.70;6.20;;;;;;;15.75;67.31;99480.00;105846;1281;99125;-65
2022/07/09 00:30:31;;;;;;;16.50;6.70;;;;;;;15.75;67.33;99479.36;105900;1279;108461;-67
2022/07/09 00:33:00;;;;;;;15.80;6.70;;;;;;;15.73;67.38;99475.00;105796;1281;99138;-67
2022/07/09 00:35:32;;;;;;;18.30;7.10;;;;;;;15.73;67.38;99472.35;105910;1280;97913;-67
2022/07/09 00:37:59;;;;;;;15.10;6.60;;;;;;;15.72;67.46;99476.86;105877;1280;112609;-68
2022/07/09 00:40:29;;;;;;;14.20;5.90;;;;;;;15.72;67.39;99477.98;105826;1281;99241;-67
2022/07/09 00:43:02;;;;;;;11.40;5.90;;;;;;;15.70;67.44;99480.52;105754;1280;107993;-66
2022/07/09 00:45:30;;;;;;;13.30;5.80;;;;;;;15.70;67.64;99484.22;105807;1280;99774;-67
2022/07/09 00:48:00;;;;;;;19.20;6.30;;;;;;;15.69;67.40;99479.27;105809;1281;99252;-67
2022/07/09 00:50:30;;;;;;;13.20;5.70;;;;;;;15.67;67.55;99478.27;105772;1281;113396;-65
2022/07/09 00:53:01;;;;;;;15.60;5.70;;;;;;;15.67;67.64;99476.32;105802;1281;99269;-66
2022/07/09 00:55:28;;;;;;;19.00;6.60;;;;;;;15.65;67.43;99471.44;105856;1281;108103;-66
2022/07/09 00:57:56;;;;;;;14.00;5.20;;;;;;;15.61;67.67;99470.67;105821;1280;99391;-67
2022/07/09 01:00:24;;;;;;;16.50;5.20;;;;;;;15.61;67.68;99469.06;105889;1279;99234;-67
2022/07/09 01:02:57;;;;;;;17.90;5.40;;;;;;;15.61;67.74;99467.98;105853;1281;113290;-66
2022/07/09 01:05:26;;;;;;;10.60;4.60;;;;;;;15.61;67.63;99464.09;105786;1281;99214;-65
2022/07/09 01:07:56;;;;;;;14.80;6.00;;;;;;;15.57;67.63;99462.66;105792;1279;109964;-66
2022/07/09 01:10:26;;;;;;;14.10;5.70;;;;;;;15.56;67.58;99462.41;105845;1281;99316;-67
2022/07/09 01:12:56;;;;;;;12.60;4.60;;;;;;;15.55;67.75;99458.95;105863;1280;96629;-66
2022/07/09 01:15:27;;;;;;;13.10;5.50;;;;;;;15.52;67.62;99456.48;105871;1281;112823;-66
2022/07/09 01:17:57;;;;;;;12.60;4.90;;;;;;;15.50;67.67;99454.13;105830;1281;99361;-65
2022/07/09 01:20:31;;;;;;;13.10;5.20;;;;;;;15.47;67.79;99451.55;105786;1281;107594;-66
2022/07/09 01:23:01;;;;;;;12.40;5.10;;;;;;;15.46;67.87;99452.37;105759;1279;96730;-68
2022/07/09 01:25:45;;;;;;;14.30;4.80;;;;;;;15.45;67.86;99450.84;105854;1281;99247;-67
2022/07/09 01:28:15;;;;;;;17.80;4.80;;;;;;;15.42;67.93;99450.55;105883;1281;113328;-67
2022/07/09 01:30:48;;;;;;;12.20;5.20;;;;;;;15.41;67.91;99448.54;105877;1281;99089;-67
2022/07/09 01:33:16;;;;;;;9.90;4.80;;;;;;;15.40;67.95;99451.30;105876;1281;107813;-66
2022/07/09 01:35:45;;;;;;;11.70;4.70;;;;;;;15.37;67.91;99449.94;105817;1281;99250;-66
2022/07/09 01:38:15;;;;;;;10.20;4.00;;;;;;;15.36;68.05;99447.55;105851;1281;99177;-67
2022/07/09 01:40:45;;;;;;;10.20;5.10;;;;;;;15.35;68.04;99443.50;105969;1279;113338;-68
2022/07/09 01:43:15;;;;;;;11.00;4.50;;;;;;;15.34;68.11;99445.89;105984;1281;99297;-68
2022/07/09 01:45:44;;;;;;;13.30;4.30;;;;;;;15.33;68.12;99444.17;105985;1280;108423;-67
2022/07/09 01:48:13;;;;;;;10.20;4.20;;;;;;;15.32;68.10;99446.78;105932;1281;99207;-67
2022/07/09 01:50:45;;;;;;;9.70;4.30;;;;;;;15.29;68.09;99444.66;105858;1280;99219;-68
2022/07/09 01:53:17;;;;;;;11.80;4.10;;;;;;;15.27;68.17;99445.73;105778;1281;113573;-67
2022/07/09 01:55:46;;;;;;;10.00;4.60;;;;;;;15.26;67.97;99447.27;105803;1279;96951;-68
2022/07/09 01:58:14;;;;;;;12.70;3.90;;;;;;;15.24;68.16;99445.30;105776;1280;108373;-66
2022/07/09 02:00:47;;;;;;;10.30;4.00;;;;;;;15.23;68.13;99447.02;105787;1280;96732;-66
2022/07/09 02:03:15;;;;;;;10.50;3.90;;;;;;;15.20;68.17;99447.78;105789;1280;99201;-65
2022/07/09 02:05:43;;;;;;;9.50;3.40;;;;;;;15.19;68.25;99444.13;105772;1279;113118;-63
2022/07/09 02:08:13;;;;;;;14.30;3.50;;;;;;;15.14;68.13;99441.89;105816;1281;99890;-66
2022/07/09 02:10:43;;;;;;;7.70;3.70;;;;;;;15.08;68.12;99440.77;105838;1279;106805;-65
2022/07/09 02:13:14;;;;;;;8.40;3.70;;;;;;;15.05;68.24;99440.83;105819;1279;99346;-63
2022/07/09 02:15:42;;;;;;;10.10;3.80;;;;;;;15.02;68.12;99441.11;105802;1280;99267;-66
2022/07/09 02:18:12;;;;;;;10.60;4.10;;;;;;;14.97;68.15;99441.88;105756;1279;112702;-63
2022/07/09 02:20:42;;;;;;;12.10;4.40;;;;;;;14.92;68.17;99445.48;105793;1279;97658;-65
2022/07/09 02:23:10;;;;;;;10.90;4.10;;;;;;;14.88;68.28;99442.57;105756;1279;108280;-67
2022/07/09 02:25:43;;;;;;;13.50;4.40;;;;;;;14.85;68.29;99437.55;105773;1280;99298;-66
2022/07/09 02:28:11;;;;;;;13.10;4.40;;;;;;;14.82;68.27;99436.90;105789;1279;100361;-67
2022/07/09 02:30:41;;;;;;;11.10;4.00;;;;;;;14.78;68.35;99430.82;105755;1279;113381;-68
2022/07/09 02:33:13;;;;;;;9.80;4.10;;;;;;;14.74;68.36;99430.92;105777;1279;99317;-68
2022/07/09 02:35:42;;;;;;;11.80;4.10;;;;;;;14.70;68.34;99430.21;105727;1279;107747;-65
2022/07/09 02:38:14;;;;;;;12.40;3.90;;;;;;;14.65;68.28;99424.17;105750;1280;99403;-66
2022/07/09 02:40:42;;;;;;;13.30;4.50;;;;;;;14.57;68.21;99427.33;105755;1279;99339;-67
2022/07/09 02:43:12;;;;;;;10.50;4.30;;;;;;;14.52;68.41;99422.35;105752;1279;113595;-67
2022/07/09 02:45:42;;;;;;;14.40;4.40;;;;;;;14.49;68.30;99424.78;105830;1279;99260;-67
2022/07/09 02:48:14;;;;;;;15.60;4.80;;;;;;;14.45;68.36;99421.94;105782;1279;108485;-66
2022/07/09 02:50:42;;;;;;;13.00;4.30;;;;;;;14.41;68.51;99422.23;105796;1279;99340;-66
2022/07/09 02:53:15;;;;;;;10.00;4.00;;;;;;;14.39;68.60;99419.77;105771;1279;97471;-66
2022/07/09 02:55:46;;;;;;;14.20;4.50;;;;;;;14.36;68.57;99418.01;105775;1279;112317;-67
2022/07/09 02:58:13;;;;;;;11.30;4.60;;;;;;;14.34;68.63;99418.70;105838;1279;99263;-67
2022/07/09 03:00:42;;;;;;;12.30;4.70;;;;;;;14.31;68.62;99415.55;105830;1279;108356;-66
2022/07/09 03:03:16;;;;;;;10.20;4.20;;;;;;;14.28;68.67;99416.31;105834;1279;99880;-67
2022/07/09 03:05:43;;;;;;;11.40;4.50;;;;;;;14.26;68.65;99416.70;105782;1279;99943;-66
2022/07/09 03:08:14;;;;;;;13.30;4.40;;;;;;;14.23;68.73;99419.55;105741;1279;113426;-67
2022/07/09 03:10:43;;;;;;;11.50;4.20;;;;;;;14.22;68.78;99415.25;105786;1279;96585;-67
2022/07/09 03:13:13;;;;;;;17.20;4.60;;;;;;;14.22;68.84;99412.92;105758;1279;108400;-66
2022/07/09 03:15:46;;;;;;;15.30;4.50;;;;;;;14.21;68.86;99413.89;105769;1279;99184;-67
2022/07/09 03:18:13;;;;;;;14.40;5.40;;;;;;;14.21;68.93;99414.45;105787;1279;96721;-67
2022/07/09 03:20:44;;;;;;;17.00;4.50;;;;;;;14.19;68.83;99419.05;105806;1279;113443;-65
2022/07/09 03:23:14;;;;;;;14.20;4.40;;;;;;;14.16;68.88;99420.72;105787;1279;99393;-66
2022/07/09 03:25:45;;;;;;;16.70;4.60;;;;;;;14.14;68.92;99422.81;105886;1279;108282;-68
2022/07/09 03:28:13;;;;;;;10.20;5.10;;;;;;;14.13;69.02;99421.81;105906;1279;99192;-68
2022/07/09 03:30:41;;;;;;;12.60;4.80;;;;;;;14.13;68.97;99422.55;105857;1279;99294;-68
2022/07/09 03:33:09;;;;;;;14.20;4.50;;;;;;;14.12;69.02;99423.89;105829;1279;113283;-66
2022/07/09 03:35:39;;;;;;;18.90;5.30;;;;;;;14.11;69.08;99429.48;105926;1279;99008;-67
2022/07/09 03:38:07;;;;;;;18.60;5.20;;;;;;;14.10;69.06;99430.65;105940;1279;108396;-67
2022/07/09 03:40:35;;;;;;;17.20;5.20;;;;;;;14.08;69.12;99429.20;105889;1279;99322;-66
2022/07/09 03:43:03;;;;;;;11.40;5.00;;;;;;;14.08;69.11;99431.14;105892;1279;99294;-66
2022/07/09 03:45:31;;;;;;;13.00;4.90;;;;;;;14.08;69.15;99431.18;105773;1279;113401;-67
2022/07/09 03:48:01;;;;;;;14.70;5.10;;;;;;;14.09;69.28;99429.09;103881;1279;2671559;-67
2022/07/09 03:50:31;;;;;;;14.50;4.90;;;;;;;14.09;69.10;99429.29;105842;1279;108724;-65
2022/07/09 03:53:01;;;;;;;13.80;4.90;;;;;;;14.09;69.14;99427.32;105769;1279;99374;-67
2022/07/09 03:55:31;;;;;;;14.80;5.00;;;;;;;14.08;69.25;99427.41;105760;1279;99263;-66
2022/07/09 03:57:59;;;;;;;17.70;5.40;;;;;;;14.09;69.19;99433.20;105871;1279;113067;-67
2022/07/09 04:00:32;;;;;;;13.50;4.70;;;;;;;14.10;69.39;99434.20;105839;1279;98338;-66
2022/07/09 04:03:01;;;;;;;14.00;5.30;;;;;;;14.13;69.32;99440.05;105825;1279;108324;-67
2022/07/09 04:05:31;;;;;;;12.10;5.00;;;;;;;14.14;69.41;99439.98;105901;1279;99227;-69
2022/07/09 04:08:01;;;;;;;19.00;5.50;;;;;;;14.14;69.50;99442.80;106007;1280;96605;-67
2022/07/09 04:10:29;;;;;;;13.80;4.80;;;;;;;14.16;69.41;99441.92;105932;1279;113338;-67
2022/07/09 04:12:59;;;;;;;14.10;5.00;;;;;;;14.17;69.52;99446.46;106004;1279;96945;-67
2022/07/09 04:15:29;;;;;;;20.70;5.60;;;;;;;14.20;69.56;99446.30;105936;1279;106236;-68
2022/07/09 04:18:00;;;;;;;20.70;5.70;;;;;;;14.22;69.50;99446.45;105887;1279;99223;-67
2022/07/09 04:20:28;;;;;;;12.50;5.20;;;;;;;14.23;69.56;99445.67;105967;1278;99383;-66
2022/07/09 04:22:56;;;;;;;14.90;5.00;;;;;;;14.25;69.60;99447.46;105838;1279;111834;-66
2022/07/09 04:25:26;;;;;;;13.00;5.00;;;;;;;14.28;69.65;99448.45;105775;1279;96640;-66
2022/07/09 04:27:54;;;;;;;14.70;5.40;;;;;;;14.29;69.70;99450.10;105742;1279;108329;-66
2022/07/09 04:30:27;;;;;;;13.30;5.00;;;;;;;14.32;69.66;99442.95;105755;1279;99789;-66
2022/07/09 04:32:54;;;;;;;15.70;5.30;;;;;;;14.32;69.70;99448.30;105745;1279;99319;-65
2022/07/09 04:35:26;;;;;;;15.10;4.90;;;;;;;14.32;69.79;99445.59;105755;1279;111709;-67
2022/07/09 04:37:54;;;;;;;17.40;5.90;;;;;;;14.35;69.76;99448.23;105743;1279;99333;-67
2022/07/09 04:40:24;;;;;;;12.40;5.60;;;;;;;14.37;69.80;99451.98;105724;1279;110352;-67
2022/07/09 04:42:54;;;;;;;11.10;5.50;;;;;;;14.40;69.78;99453.14;105704;1279;99406;-68
2022/07/09 04:45:24;;;;;;;16.50;6.20;;;;;;;14.44;69.80;99452.13;105767;1279;99115;-70
2022/07/09 04:47:52;;;;;;;13.40;5.30;;;;;;;14.47;69.79;99454.96;105766;1279;113398;-66
2022/07/09 04:50:20;;;;;;;13.90;5.70;;;;;;;14.51;69.87;99451.02;105753;1279;99201;-66
2022/07/09 04:52:53;;;;;;;14.20;5.20;;;;;;;14.55;69.97;99460.16;105827;1279;108342;-68
2022/07/09 04:55:21;;;;;;;10.50;5.50;;;;;;;14.60;69.99;99462.75;105886;1279;99345;-66
2022/07/09 04:57:52;;;;;;;17.70;5.40;;;;;;;14.66;69.89;99461.71;105801;1279;99204;-67
2022/07/09 05:00:22;;;;;;;16.40;5.80;;;;;;;14.69;69.91;99458.27;105855;1279;113055;-68
2022/07/09 05:02:53;;;;;;;16.20;5.10;;;;;;;14.72;69.91;99458.56;105865;1279;96661;-66
2022/07/09 05:05:25;;;;;;;14.00;5.20;;;;;;;14.75;69.90;99456.77;105722;1279;107575;-67
2022/07/09 05:07:55;;;;;;;14.30;5.60;;;;;;;14.79;69.88;99468.59;105711;1279;99324;-66
2022/07/09 05:10:23;;;;;;;15.80;6.00;;;;;;;14.81;69.83;99469.99;105750;1279;99225;-68
2022/07/09 05:12:53;;;;;;;13.30;5.20;;;;;;;14.84;69.87;99467.42;105752;1279;113363;-68
2022/07/09 05:15:23;;;;;;;17.30;5.70;;;;;;;14.89;69.95;99463.11;105776;1279;99347;-69
2022/07/09 05:17:50;;;;;;;11.50;5.00;;;;;;;14.93;69.91;99463.67;105745;1279;109100;-67
2022/07/09 05:20:20;;;;;;;12.60;4.80;;;;;;;14.97;70.01;99460.58;105729;1279;99327;-67
2022/07/09 05:22:49;;;;;;;13.30;5.30;;;;;;;15.02;69.95;99458.02;105746;1279;96818;-67
2022/07/09 05:25:19;;;;;;;13.80;4.60;;;;;;;15.07;70.08;99455.37;105760;1279;113415;-66
2022/07/09 05:27:47;;;;;;;13.70;4.80;;;;;;;15.10;69.92;99457.52;105764;1279;99323;-66
2022/07/09 05:30:18;;;;;;;11.20;4.90;;;;;;;15.18;70.00;99461.92;105752;1279;107423;-64
2022/07/09 05:32:48;;;;;;;17.40;4.90;;;;;;;15.29;70.06;99465.40;105761;1279;96720;-68
2022/07/09 05:35:18;;;;;;;13.80;4.90;;;;;;;15.45;70.12;99468.88;105716;1279;99198;-67
2022/07/09 05:37:48;;;;;;;9.60;4.30;;;;;;;15.59;69.85;99469.25;105712;1279;113695;-67
2022/07/09 05:40:16;;;;;;;14.10;4.70;;;;;;;15.71;69.95;99471.46;105740;1279;99301;-66
2022/07/09 05:42:43;;;;;;;9.40;3.90;;;;;;;15.83;70.03;99473.10;105754;1279;108386;-67
2022/07/09 05:45:11;;;;;;;12.10;4.70;;;;;;;15.99;69.82;99471.52;105867;1279;96742;-66
2022/07/09 05:47:44;;;;;;;14.60;4.60;;;;;;;16.15;69.70;99469.06;105914;1279;99316;-66
2022/07/09 05:50:14;;;;;;;15.20;4.60;;;;;;;16.29;69.86;99466.58;105799;1279;111763;-67
2022/07/09 05:52:42;;;;;;;15.20;4.70;;;;;;;16.38;69.88;99463.79;105770;1279;99231;-67
2022/07/09 05:55:15;;;;;;;14.90;4.40;;;;;;;16.49;69.72;99455.98;105753;1279;108318;-67
2022/07/09 05:57:43;;;;;;;15.50;4.50;;;;;;;16.61;69.79;99455.05;105757;1279;96703;-68
2022/07/09 06:00:14;;;;;;;9.60;4.00;;;;;;;16.72;69.65;99455.16;105778;1279;99237;-67
2022/07/09 06:02:42;;;;;;;26.00;4.90;;;;;;;16.83;69.84;99464.32;105791;1279;113362;-66
2022/07/09 06:05:12;;;;;;;15.00;4.40;;;;;;;16.89;69.51;99461.30;105916;1279;99381;-66
2022/07/09 06:07:44;;;;;;;19.80;4.80;;;;;;;16.90;69.52;99462.05;105839;1279;110835;-65
2022/07/09 06:10:17;;;;;;;8.50;4.00;;;;;;;16.93;69.55;99464.36;105850;1279;99293;-68
2022/07/09 06:12:48;;;;;;;17.70;4.50;;;;;;;16.93;69.69;99464.81;105812;1279;99242;-68
2022/07/09 06:15:16;;;;;;;10.60;4.30;;;;;;;16.96;69.68;99466.20;105882;1279;113440;-68
2022/07/09 06:17:46;;;;;;;10.20;3.80;;;;;;;16.98;69.52;99466.93;105940;1279;96714;-68
2022/07/09 06:20:16;;;;;;;14.10;4.00;;;;;;;16.96;69.34;99461.77;105951;1279;108405;-65
2022/07/09 06:22:47;;;;;;;16.80;4.90;;;;;;;16.92;69.34;99460.06;105871;1279;99194;-66
2022/07/09 06:25:14;;;;;;;13.40;4.30;;;;;;;16.93;69.38;99457.29;105799;1279;96625;-67
2022/07/09 06:27:43;;;;;;;10.10;3.80;;;;;;;16.97;69.54;99450.21;105860;1279;113375;-68
2022/07/09 06:30:11;;;;;;;14.40;4.10;;;;;;;17.01;69.39;99448.92;105907;1279;98908;-68
2022/07/09 06:32:42;;;;;;;17.10;4.50;;;;;;;17.03;69.09;99444.78;105893;1279;107973;-67
2022/07/09 06:35:11;;;;;;;16.10;3.70;;;;;;;17.07;69.10;99441.55;105767;1279;99263;-66
2022/07/09 06:37:41;;;;;;;9.60;3.60;;;;;;;17.17;69.29;99440.40;105802;1279;99270;-66
2022/07/09 06:40:12;;;;;;;9.70;3.90;;;;;;;17.28;69.12;99436.58;105841;1279;113648;-65
2022/07/09 06:42:43;;;;;;;16.30;4.20;;;;;;;17.37;69.25;99434.23;105834;1279;99316;-66
2022/07/09 06:45:11;;;;;;;12.10;3.60;;;;;;;17.48;69.21;99435.55;105958;1279;108295;-68
2022/07/09 06:47:39;;;;;;;9.00;3.60;;;;;;;17.59;69.05;99434.15;105791;1279;99286;-66
2022/07/09 06:50:14;;;;;;;10.70;3.60;;;;;;;17.65;69.06;99435.05;105889;1279;99245;-67
2022/07/09 06:52:42;;;;;;;9.90;3.60;;;;;;;17.77;68.98;99429.52;105874;1279;112721;-66
2022/07/09 06:55:10;;;;;;;11.60;3.70;;;;;;;17.94;69.08;99426.15;105794;1278;99299;-66
2022/07/09 06:57:38;;;;;;;10.60;3.80;;;;;;;18.12;68.92;99426.18;105844;1278;108404;-65
2022/07/09 07:00:11;;;;;;;8.10;3.40;;;;;;;18.29;68.75;99424.20;105813;1279;99444;-65
2022/07/09 07:02:41;;;;;;;10.80;3.40;;;;;;;18.45;68.82;99424.95;105877;1279;99216;-64
2022/07/09 07:05:09;;;;;;;10.90;3.60;;;;;;;18.57;68.72;99425.67;105762;1279;113619;-65
2022/07/09 07:07:45;;;;;;;13.70;3.90;;;;;;;18.63;68.84;99419.36;105758;1279;99128;-65
2022/07/09 07:10:14;;;;;;;10.00;3.80;;;;;;;18.61;68.51;99422.59;105750;1279;108333;-66
2022/07/09 07:12:43;;;;;;;8.60;3.30;;;;;;;18.63;68.63;99412.91;105766;1279;99263;-65
2022/07/09 07:15:11;;;;;;;11.90;3.70;;;;;;;18.79;68.23;99419.20;105831;1279;99250;-64
2022/07/09 07:17:39;;;;;;;11.10;3.60;;;;;;;18.76;68.15;99420.73;105819;1279;113372;-66
2022/07/09 07:20:12;;;;;;;10.70;4.30;;;;;;;18.71;68.31;99423.02;105835;1279;99215;-66
2022/07/09 07:22:39;;;;;;;10.90;3.60;;;;;;;18.65;68.29;99420.40;105875;1279;108333;-69
2022/07/09 07:25:10;;;;;;;10.90;4.10;;;;;;;18.59;68.17;99421.72;105873;1277;99325;-66
2022/07/09 07:27:38;;;;;;;9.60;3.60;;;;;;;18.49;67.94;99423.27;106015;1277;99232;-67
2022/07/09 07:30:10;;;;;;;9.30;3.70;;;;;;;18.38;67.88;99424.70;105967;1277;113772;-66
2022/07/09 07:32:41;;;;;;;12.30;4.50;;;;;;;18.30;67.91;99424.48;105903;1277;99308;-68
2022/07/09 07:35:09;;;;;;;12.40;4.20;;;;;;;18.19;68.00;99427.61;105849;1277;107726;-69
2022/07/09 07:37:37;;;;;;;10.90;4.50;;;;;;;18.11;67.87;99426.15;105860;1277;96690;-68
2022/07/09 07:40:09;;;;;;;10.50;4.50;;;;;;;18.04;67.87;99429.49;105758;1279;99212;-66
2022/07/09 07:42:38;;;;;;;11.00;5.10;;;;;;;17.94;67.83;99426.09;105760;1279;113930;-65
2022/07/09 07:45:09;;;;;;;8.40;4.00;;;;;;;17.91;67.76;99422.11;105771;1279;99442;-62
2022/07/09 07:47:39;;;;;;;12.80;4.90;;;;;;;17.92;67.92;99420.81;105722;1278;108325;-70
2022/07/09 07:50:09;;;;;;;10.10;4.60;;;;;;;17.96;67.95;99420.13;105764;1277;99437;-65
2022/07/09 07:52:37;;;;;;;11.20;5.30;;;;;;;18.02;67.75;99420.48;105804;1278;99330;-64
2022/07/09 07:55:10;;;;;;;15.90;4.90;;;;;;;18.10;67.70;99423.04;105698;1279;113383;-65
2022/07/09 07:57:38;;;;;;;14.30;4.70;;;;;;;18.18;67.73;99420.23;105775;1279;99243;-65
2022/07/09 08:00:11;;;;;;;15.00;5.10;;;;;;;18.28;67.71;99419.23;105866;1279;108321;-64
2022/07/09 08:02:40;;;;;;;18.90;5.00;;;;;;;18.57;67.48;99410.83;105878;1277;99239;-65
2022/07/09 08:05:10;;;;;;;17.80;5.90;;;;;;;18.87;67.39;99410.33;105741;1279;99232;-65
2022/07/09 08:07:40;;;;;;;12.50;4.60;;;;;;;19.19;67.17;99407.91;105784;1279;113446;-69
2022/07/09 08:10:11;;;;;;;10.00;4.20;;;;;;;19.91;66.79;99406.61;105778;1279;99235;-67
2022/07/09 08:12:41;;;;;;;8.30;3.90;;;;;;;20.19;66.69;99410.77;105729;1279;108210;-68
2022/07/09 08:15:12;;;;;;;7.20;3.60;;;;;;;20.26;67.01;99401.27;105740;1279;99256;-67
2022/07/09 08:17:40;;;;;;;13.20;4.50;;;;;;;20.31;67.10;99404.88;105793;1279;96589;-67
2022/07/09 08:20:11;;;;;;;10.60;3.40;;;;;;;20.33;66.91;99401.98;105748;1279;112554;-67
2022/07/09 08:22:40;;;;;;;11.40;3.90;;;;;;;20.36;67.01;99398.71;105817;1279;99221;-66
2022/07/09 08:25:10;;;;;;;12.30;3.60;;;;;;;20.42;66.74;99395.81;105735;1279;108401;-65
2022/07/09 08:27:43;;;;;;;14.00;3.50;;;;;;;20.61;66.50;99401.09;105864;1278;99246;-66
2022/07/09 08:30:13;;;;;;;14.40;3.60;;;;;;;20.84;66.22;99401.68;105877;1278;99296;-64
2022/07/09 08:32:41;;;;;;;7.60;3.60;;;;;;;21.04;66.28;99396.09;105893;1278;113684;-64
2022/07/09 08:35:09;;;;;;;8.70;3.00;;;;;;;21.31;66.08;99393.76;105825;1279;99183;-66
2022/07/09 08:37:38;;;;;;;8.20;3.40;;;;;;;21.52;65.76;99394.47;105839;1278;107296;-66
2022/07/09 08:40:10;;;;;;;11.30;3.40;;;;;;;21.78;65.19;99391.98;105813;1279;99965;-66
2022/07/09 08:42:38;;;;;;;9.90;3.40;;;;;;;22.75;65.00;99387.38;105845;1279;97889;-66
2022/07/09 08:45:16;;;;;;;9.70;3.00;;;;;;;23.80;64.79;99380.97;105886;1279;113356;-65
2022/07/09 08:47:46;;;;;;;8.40;3.00;;;;;;;24.76;64.47;99373.86;105936;1279;99244;-64
2022/07/09 08:50:14;;;;;;;9.20;3.30;;;;;;;25.55;64.52;99373.42;105861;1279;108328;-65
2022/07/09 08:52:49;;;;;;;13.30;3.40;;;;;;;25.66;65.00;99376.73;105878;1279;99985;-64
2022/07/09 08:55:16;;;;;;;11.10;3.60;;;;;;;25.40;64.91;99379.46;106032;1278;100302;-63
2022/07/09 08:57:46;;;;;;;11.00;3.40;;;;;;;25.19;64.54;99378.27;105990;1279;113734;-64
2022/07/09 09:00:19;;;;;;;12.10;3.50;;;;;;;25.14;64.13;99372.76;105934;1279;99365;-64
2022/07/09 09:02:47;;;;;;;10.90;3.50;;;;;;;25.11;64.15;99373.59;105916;1279;108268;-65
2022/07/09 09:05:18;;;;;;;9.40;3.10;;;;;;;24.87;63.60;99373.63;105919;1279;99351;-65
2022/07/09 09:07:45;;;;;;;12.20;3.30;;;;;;;24.88;63.58;99373.50;105897;1279;99177;-65
2022/07/09 09:10:28;;;;;;;9.50;2.80;;;;;;;24.89;63.01;99367.57;105871;1279;113758;-65
2022/07/09 09:13:01;;;;;;;8.20;2.70;;;;;;;25.02;62.87;99362.84;105935;1279;96859;-68
2022/07/09 09:15:30;;;;;;;10.50;2.90;;;;;;;25.07;62.49;99361.21;105872;1279;108440;-65
2022/07/09 09:18:05;;;;;;;12.60;3.20;;;;;;;25.03;62.52;99359.29;105761;1279;96793;-68
2022/07/09 09:20:33;;;;;;;10.90;3.00;;;;;;;25.07;62.25;99354.38;105824;1279;99336;-66
2022/07/09 09:23:10;;;;;;;11.00;3.20;;;;;;;25.08;62.08;99348.40;105838;1279;113552;-66
2022/07/09 09:25:41;;;;;;;10.80;3.00;;;;;;;25.05;61.95;99353.20;105791;1279;98348;-65
2022/07/09 09:28:14;;;;;;;9.80;3.40;;;;;;;24.88;61.63;99350.45;105968;1279;108382;-63
2022/07/09 09:30:46;;;;;;;9.60;2.90;;;;;;;24.68;61.53;99349.35;105938;1279;99320;-65
2022/07/09 09:33:18;;;;;;;12.30;3.20;;;;;;;24.57;61.29;99349.46;106033;1277;99253;-64
2022/07/09 09:35:48;;;;;;;12.30;2.90;;;;;;;24.36;60.87;99341.03;106029;1279;113078;-64
2022/07/09 09:38:29;;;;;;;9.30;3.20;;;;;;;24.16;60.83;99345.54;106024;1279;99092;-65
2022/07/09 09:40:59;;;;;;;12.20;3.70;;;;;;;23.93;60.44;99338.45;105937;1279;108329;-64
2022/07/09 09:43:33;;;;;;;9.80;3.30;;;;;;;23.74;60.36;99340.59;105977;1279;99273;-65
2022/07/09 09:46:05;;;;;;;10.40;2.90;;;;;;;23.69;59.96;99329.92;105974;1279;96628;-65
2022/07/09 09:48:37;;;;;;;7.30;2.80;;;;;;;23.73;60.02;99329.53;106015;1279;112750;-65
2022/07/09 09:51:08;;;;;;;;;;;;;;;23.67;59.71;99326.05;105948;1279;98427;-64
2022/07/09 09:53:40;;;;;;;13.00;3.00;;;;;;;23.53;59.57;99325.92;105943;1279;108214;-66
2022/07/09 09:56:11;;;;;;;7.20;2.70;;;;;;;23.52;59.33;99320.82;105979;1279;99733;-65
2022/07/09 09:58:42;;;;;;;12.60;3.10;;;;;;;23.73;59.19;99316.21;106020;1279;99341;-67
2022/07/09 10:01:12;;;;;;;8.10;2.80;;;;;;;23.89;59.09;99316.48;105969;1279;112718;-65
2022/07/09 10:03:41;;;;;;;7.40;2.40;;;;;;;24.07;58.73;99309.88;106016;1279;99251;-65
2022/07/09 10:06:13;;;;;;;11.00;3.40;;;;;;;24.17;58.67;99310.71;105911;1279;108314;-65
2022/07/09 10:08:41;;;;;;;14.40;3.60;;;;;;;23.95;58.02;99313.91;105938;1279;96726;-66
2022/07/09 10:11:11;;;;;;;9.40;3.00;;;;;;;23.65;57.88;99312.12;105902;1279;99465;-65
2022/07/09 10:13:56;;;;;;;8.80;2.80;;;;;;;23.47;57.86;99309.14;105930;1279;115099;-64
2022/07/09 10:16:37;;;;;;;12.60;3.00;;;;;;;23.18;57.42;99307.38;105926;1279;97782;-66
2022/07/09 10:19:08;;;;;;;15.70;3.40;;;;;;;22.98;57.53;99304.25;105841;1279;107754;-64
2022/07/09 10:21:40;;;;;;;8.80;3.00;;;;;;;22.84;57.30;99303.10;105769;1279;96682;-64
2022/07/09 10:24:11;;;;;;;9.30;2.70;;;;;;;22.74;57.26;99300.90;105816;1279;99218;-65
2022/07/09 10:26:42;;;;;;;7.10;2.90;;;;;;;22.70;57.19;99301.02;105836;1279;113090;-64
2022/07/09 10:29:28;;;;;;;9.60;3.30;;;;;;;22.69;56.93;99299.86;105799;1279;99254;-66
2022/07/09 10:31:59;;;;;;;7.50;2.80;;;;;;;22.72;56.92;99296.79;105984;1279;108408;-65
2022/07/09 10:34:29;;;;;;;11.60;2.80;;;;;;;22.73;56.68;99287.46;105933;1279;99223;-65
2022/07/09 10:37:04;;;;;;;5.50;2.50;;;;;;;22.77;56.44;99289.39;105931;1279;99303;-64
2022/07/09 10:39:35;;;;;;;9.50;2.80;;;;;;;22.74;56.34;99288.23;105961;1279;112913;-63
2022/07/09 10:42:33;;;;;;;5.80;2.60;;;;;;;22.72;56.11;99286.19;105803;1279;99241;-65
2022/07/09 10:45:04;;;;;;;8.80;2.70;;;;;;;22.62;56.06;99286.25;105819;1279;108193;-64
2022/07/09 10:47:39;;;;;;;9.70;3.10;;;;;;;22.56;56.28;99287.40;105875;1279;99348;-63
2022/07/09 10:50:10;;;;;;;11.80;2.60;;;;;;;22.53;55.95;99286.23;105981;1279;99237;-66
2022/07/09 10:52:41;;;;;;;7.90;2.60;;;;;;;22.44;55.73;99290.70;105957;1279;113282;-65
2022/07/09 10:55:09;;;;;;;10.20;2.80;;;;;;;22.28;55.71;99289.89;106014;1279;99348;-66
2022/07/09 10:57:39;;;;;;;6.40;2.40;;;;;;;22.17;55.71;99289.83;105973;1279;108372;-65
2022/07/09 11:00:27;;;;;;;8.60;2.90;;;;;;;22.03;55.24;99282.77;105861;1279;96640;-64
2022/07/09 11:02:59;;;;;;;12.10;3.00;;;;;;;21.87;55.21;99288.16;105819;1279;99119;-66
2022/07/09 11:05:34;;;;;;;11.30;2.80;;;;;;;21.78;55.33;99285.45;105878;1279;113484;-64
2022/07/09 11:08:09;;;;;;;12.90;3.10;;;;;;;21.55;55.09;99291.98;105847;1279;96612;-64
2022/07/09 11:10:40;;;;;;;8.60;3.20;;;;;;;21.32;55.02;99290.44;105837;1279;108717;-65
2022/07/09 11:13:28;;;;;;;12.00;2.60;;;;;;;21.06;54.88;99286.02;105773;1279;99278;-64
2022/07/09 11:16:04;;;;;;;6.40;2.30;;;;;;;20.92;54.84;99289.58;105828;1279;96609;-62
2022/07/09 11:18:32;;;;;;;9.50;2.80;;;;;;;20.77;54.87;99283.48;105869;1279;112715;-63
2022/07/09 11:21:03;;;;;;;9.80;2.80;;;;;;;20.79;54.99;99281.09;105869;1279;99207;-65
2022/07/09 11:23:33;;;;;;;10.90;2.80;;;;;;;20.88;54.83;99280.50;105844;1279;107481;-64
2022/07/09 11:26:04;;;;;;;9.80;2.70;;;;;;;20.96;54.76;99276.66;105822;1279;99446;-64
2022/07/09 11:28:36;;;;;;;11.20;2.40;;;;;;;21.10;54.83;99275.50;105815;1279;99252;-64
2022/07/09 11:31:05;;;;;;;11.90;3.20;;;;;;;21.26;54.77;99264.09;105838;1279;113323;-64